sensor_id;sensor_type;location;lat;lon;timestamp;P1;durP1;ratioP1;P2;durP2;ratioP2
56345;SDS011;42246;46.096;13.644;2022-10-23T00:00:10;0.00;;;0.00;;
56345;SDS011;42246;46.096;13.644;2022-10-23T00:02:35;2.75;;;0.10;;
56345;SDS011;42246;46.096;13.644;2022-10-23T00:05:01;0.00;;;0.00;;
56345;SDS011;42246;46.096;13.644;2022-10-23T00:07:26;5.05;;;0.10;;
56345;SDS011;42246;46.096;13.644;2022-10-23T00:09:52;0.17;;;0.00;;
56345;SDS011;42246;46.096;13.644;2022-10-23T00:12:17;0.95;;;0.55;;
56345;SDS011;42246;46.096;13.644;2022-10-23T00:14:43;0.45;;;0.10;;
56345;SDS011;42246;46.096;13.644;2022-10-23T00:17:08;1.48;;;0.10;;
56345;SDS011;42246;46.096;13.644;2022-10-23T00:19:36;3.80;;;0.08;;
56345;SDS011;42246;46.096;13.644;2022-10-23T00:22:01;0.00;;;0.00;;
56345;SDS011;42246;46.096;13.644;2022-10-23T00:24:27;1.20;;;0.00;;
56345;SDS011;42246;46.096;13.644;2022-10-23T00:26:52;0.28;;;0.10;;
56345;SDS011;42246;46.096;13.644;2022-10-23T00:29:18;0.22;;;0.05;;
56345;SDS011;42246;46.096;13.644;2022-10-23T00:31:43;1.75;;;0.08;;
56345;SDS011;42246;46.096;13.644;2022-10-23T00:34:09;0.20;;;0.20;;
56345;SDS011;42246;46.096;13.644;2022-10-23T00:36:35;0.08;;;0.00;;
56345;SDS011;42246;46.096;13.644;2022-10-23T00:39:00;0.28;;;0.28;;
56345;SDS011;42246;46.096;13.644;2022-10-23T00:41:27;0.60;;;0.00;;
56345;SDS011;42246;46.096;13.644;2022-10-23T00:43:55;1.30;;;0.10;;
56345;SDS011;42246;46.096;13.644;2022-10-23T00:46:35;0.75;;;0.00;;
56345;SDS011;42246;46.096;13.644;2022-10-23T00:49:02;0.10;;;0.00;;
56345;SDS011;42246;46.096;13.644;2022-10-23T00:51:30;0.00;;;0.00;;
56345;SDS011;42246;46.096;13.644;2022-10-23T00:53:58;0.30;;;0.05;;
56345;SDS011;42246;46.096;13.644;2022-10-23T00:56:24;0.00;;;0.00;;
56345;SDS011;42246;46.096;13.644;2022-10-23T00:58:50;0.45;;;0.10;;
56345;SDS011;42246;46.096;13.644;2022-10-23T01:01:16;0.52;;;0.08;;
56345;SDS011;42246;46.096;13.644;2022-10-23T01:03:43;0.60;;;0.10;;
56345;SDS011;42246;46.096;13.644;2022-10-23T01:16:32;0.00;;;0.00;;
56345;SDS011;42246;46.096;13.644;2022-10-23T01:19:06;0.30;;;0.10;;
56345;SDS011;42246;46.096;13.644;2022-10-23T01:21:46;0.00;;;0.00;;
56345;SDS011;42246;46.096;13.644;2022-10-23T01:24:56;0.10;;;0.00;;
56345;SDS011;42246;46.096;13.644;2022-10-23T01:30:08;0.28;;;0.17;;
56345;SDS011;42246;46.096;13.644;2022-10-23T01:32:47;0.50;;;0.00;;
56345;SDS011;42246;46.096;13.644;2022-10-23T01:40:47;2.90;;;0.03;;
56345;SDS011;42246;46.096;13.644;2022-10-23T01:43:17;0.00;;;0.00;;
56345;SDS011;42246;46.096;13.644;2022-10-23T01:45:47;0.00;;;0.00;;
56345;SDS011;42246;46.096;13.644;2022-10-23T01:48:17;0.45;;;0.08;;
56345;SDS011;42246;46.096;13.644;2022-10-23T01:50:44;4.57;;;0.20;;
56345;SDS011;42246;46.096;13.644;2022-10-23T01:53:10;0.10;;;0.00;;
56345;SDS011;42246;46.096;13.644;2022-10-23T01:55:36;0.00;;;0.00;;
56345;SDS011;42246;46.096;13.644;2022-10-23T01:58:03;0.10;;;0.00;;
56345;SDS011;42246;46.096;13.644;2022-10-23T02:00:31;0.05;;;0.00;;
56345;SDS011;42246;46.096;13.644;2022-10-23T02:02:57;0.10;;;0.10;;
56345;SDS011;42246;46.096;13.644;2022-10-23T02:05:23;0.00;;;0.00;;
56345;SDS011;42246;46.096;13.644;2022-10-23T02:07:51;0.00;;;0.00;;
56345;SDS011;42246;46.096;13.644;2022-10-23T02:10:17;0.20;;;0.20;;
56345;SDS011;42246;46.096;13.644;2022-10-23T02:15:20;0.00;;;0.00;;
56345;SDS011;42246;46.096;13.644;2022-10-23T02:18:12;0.00;;;0.00;;
56345;SDS011;42246;46.096;13.644;2022-10-23T02:20:59;0.00;;;0.00;;
56345;SDS011;42246;46.096;13.644;2022-10-23T02:23:29;0.00;;;0.00;;
56345;SDS011;42246;46.096;13.644;2022-10-23T02:26:05;0.40;;;0.05;;
56345;SDS011;42246;46.096;13.644;2022-10-23T02:28:36;1.05;;;0.20;;
56345;SDS011;42246;46.096;13.644;2022-10-23T02:31:04;0.00;;;0.00;;
56345;SDS011;42246;46.096;13.644;2022-10-23T02:33:30;0.47;;;0.10;;
56345;SDS011;42246;46.096;13.644;2022-10-23T02:35:57;0.32;;;0.10;;
56345;SDS011;42246;46.096;13.644;2022-10-23T02:38:31;0.10;;;0.08;;
56345;SDS011;42246;46.096;13.644;2022-10-23T02:41:04;4.38;;;0.75;;
56345;SDS011;42246;46.096;13.644;2022-10-23T02:43:34;0.00;;;0.00;;
56345;SDS011;42246;46.096;13.644;2022-10-23T02:49:23;0.20;;;0.00;;
56345;SDS011;42246;46.096;13.644;2022-10-23T02:52:14;0.00;;;0.00;;
56345;SDS011;42246;46.096;13.644;2022-10-23T02:54:50;0.00;;;0.00;;
56345;SDS011;42246;46.096;13.644;2022-10-23T02:57:34;0.10;;;0.00;;
56345;SDS011;42246;46.096;13.644;2022-10-23T03:00:13;0.00;;;0.00;;
56345;SDS011;42246;46.096;13.644;2022-10-23T03:02:44;0.00;;;0.00;;
56345;SDS011;42246;46.096;13.644;2022-10-23T03:05:11;0.20;;;0.00;;
56345;SDS011;42246;46.096;13.644;2022-10-23T03:07:38;0.10;;;0.08;;
56345;SDS011;42246;46.096;13.644;2022-10-23T03:10:04;0.22;;;0.00;;
56345;SDS011;42246;46.096;13.644;2022-10-23T03:12:30;0.10;;;0.10;;
56345;SDS011;42246;46.096;13.644;2022-10-23T03:14:55;0.10;;;0.10;;
56345;SDS011;42246;46.096;13.644;2022-10-23T03:17:21;0.17;;;0.03;;
56345;SDS011;42246;46.096;13.644;2022-10-23T03:19:46;0.00;;;0.00;;
56345;SDS011;42246;46.096;13.644;2022-10-23T03:22:12;0.00;;;0.00;;
56345;SDS011;42246;46.096;13.644;2022-10-23T03:24:37;0.10;;;0.00;;
56345;SDS011;42246;46.096;13.644;2022-10-23T03:27:03;0.20;;;0.20;;
56345;SDS011;42246;46.096;13.644;2022-10-23T03:29:28;0.20;;;0.00;;
56345;SDS011;42246;46.096;13.644;2022-10-23T03:31:53;0.50;;;0.10;;
56345;SDS011;42246;46.096;13.644;2022-10-23T03:34:19;0.00;;;0.00;;
56345;SDS011;42246;46.096;13.644;2022-10-23T03:36:45;0.10;;;0.00;;
56345;SDS011;42246;46.096;13.644;2022-10-23T03:39:11;0.90;;;0.17;;
56345;SDS011;42246;46.096;13.644;2022-10-23T03:41:36;0.73;;;0.35;;
56345;SDS011;42246;46.096;13.644;2022-10-23T03:44:02;1.35;;;0.10;;
56345;SDS011;42246;46.096;13.644;2022-10-23T03:46:27;0.08;;;0.00;;
56345;SDS011;42246;46.096;13.644;2022-10-23T03:48:53;0.10;;;0.00;;
56345;SDS011;42246;46.096;13.644;2022-10-23T03:51:20;0.30;;;0.10;;
56345;SDS011;42246;46.096;13.644;2022-10-23T03:53:46;0.13;;;0.10;;
56345;SDS011;42246;46.096;13.644;2022-10-23T03:56:11;0.15;;;0.00;;
56345;SDS011;42246;46.096;13.644;2022-10-23T03:58:37;0.70;;;0.08;;
56345;SDS011;42246;46.096;13.644;2022-10-23T04:01:02;0.05;;;0.00;;
56345;SDS011;42246;46.096;13.644;2022-10-23T04:03:28;1.00;;;0.00;;
56345;SDS011;42246;46.096;13.644;2022-10-23T04:05:53;0.03;;;0.00;;
56345;SDS011;42246;46.096;13.644;2022-10-23T04:08:19;0.10;;;0.10;;
56345;SDS011;42246;46.096;13.644;2022-10-23T04:10:44;0.20;;;0.10;;
56345;SDS011;42246;46.096;13.644;2022-10-23T04:13:09;0.03;;;0.00;;
56345;SDS011;42246;46.096;13.644;2022-10-23T04:15:35;0.00;;;0.00;;
56345;SDS011;42246;46.096;13.644;2022-10-23T04:18:00;0.00;;;0.00;;
56345;SDS011;42246;46.096;13.644;2022-10-23T04:20:26;0.10;;;0.00;;
56345;SDS011;42246;46.096;13.644;2022-10-23T04:22:51;0.38;;;0.10;;
56345;SDS011;42246;46.096;13.644;2022-10-23T04:25:17;0.10;;;0.10;;
56345;SDS011;42246;46.096;13.644;2022-10-23T04:27:42;0.25;;;0.00;;
56345;SDS011;42246;46.096;13.644;2022-10-23T04:30:08;0.05;;;0.03;;
56345;SDS011;42246;46.096;13.644;2022-10-23T04:32:34;0.03;;;0.03;;
56345;SDS011;42246;46.096;13.644;2022-10-23T04:34:59;0.45;;;0.40;;
56345;SDS011;42246;46.096;13.644;2022-10-23T04:37:25;0.30;;;0.13;;
56345;SDS011;42246;46.096;13.644;2022-10-23T04:39:52;0.08;;;0.00;;
56345;SDS011;42246;46.096;13.644;2022-10-23T04:42:17;0.10;;;0.05;;
56345;SDS011;42246;46.096;13.644;2022-10-23T04:44:43;0.22;;;0.22;;
56345;SDS011;42246;46.096;13.644;2022-10-23T04:47:08;0.65;;;0.10;;
56345;SDS011;42246;46.096;13.644;2022-10-23T04:49:34;0.08;;;0.00;;
56345;SDS011;42246;46.096;13.644;2022-10-23T04:51:59;0.65;;;0.10;;
56345;SDS011;42246;46.096;13.644;2022-10-23T04:54:24;0.20;;;0.10;;
56345;SDS011;42246;46.096;13.644;2022-10-23T04:56:50;0.10;;;0.10;;
56345;SDS011;42246;46.096;13.644;2022-10-23T04:59:15;0.05;;;0.00;;
56345;SDS011;42246;46.096;13.644;2022-10-23T05:01:41;0.13;;;0.08;;
56345;SDS011;42246;46.096;13.644;2022-10-23T05:04:07;0.68;;;0.10;;
56345;SDS011;42246;46.096;13.644;2022-10-23T05:06:32;0.30;;;0.30;;
56345;SDS011;42246;46.096;13.644;2022-10-23T05:08:58;0.20;;;0.00;;
56345;SDS011;42246;46.096;13.644;2022-10-23T05:11:23;0.08;;;0.08;;
56345;SDS011;42246;46.096;13.644;2022-10-23T05:13:48;0.13;;;0.00;;
56345;SDS011;42246;46.096;13.644;2022-10-23T05:19:02;4.53;;;0.15;;
56345;SDS011;42246;46.096;13.644;2022-10-23T05:21:28;2.30;;;0.08;;
56345;SDS011;42246;46.096;13.644;2022-10-23T05:23:54;0.60;;;0.00;;
56345;SDS011;42246;46.096;13.644;2022-10-23T05:26:20;0.43;;;0.00;;
56345;SDS011;42246;46.096;13.644;2022-10-23T05:28:46;0.30;;;0.10;;
56345;SDS011;42246;46.096;13.644;2022-10-23T05:31:12;0.15;;;0.05;;
56345;SDS011;42246;46.096;13.644;2022-10-23T05:33:39;0.17;;;0.00;;
56345;SDS011;42246;46.096;13.644;2022-10-23T05:36:05;0.70;;;0.10;;
56345;SDS011;42246;46.096;13.644;2022-10-23T05:38:32;2.70;;;0.10;;
56345;SDS011;42246;46.096;13.644;2022-10-23T05:40:59;0.95;;;0.10;;
56345;SDS011;42246;46.096;13.644;2022-10-23T05:43:25;0.30;;;0.00;;
56345;SDS011;42246;46.096;13.644;2022-10-23T05:45:51;3.97;;;0.05;;
56345;SDS011;42246;46.096;13.644;2022-10-23T05:48:17;0.30;;;0.10;;
56345;SDS011;42246;46.096;13.644;2022-10-23T05:50:43;4.82;;;0.10;;
56345;SDS011;42246;46.096;13.644;2022-10-23T05:53:09;0.10;;;0.00;;
56345;SDS011;42246;46.096;13.644;2022-10-23T05:55:35;0.10;;;0.00;;
56345;SDS011;42246;46.096;13.644;2022-10-23T05:58:00;0.10;;;0.10;;
56345;SDS011;42246;46.096;13.644;2022-10-23T06:00:26;0.03;;;0.00;;
56345;SDS011;42246;46.096;13.644;2022-10-23T06:02:52;0.17;;;0.10;;
56345;SDS011;42246;46.096;13.644;2022-10-23T06:05:18;0.00;;;0.00;;
56345;SDS011;42246;46.096;13.644;2022-10-23T06:07:43;0.52;;;0.05;;
56345;SDS011;42246;46.096;13.644;2022-10-23T06:10:09;0.10;;;0.00;;
56345;SDS011;42246;46.096;13.644;2022-10-23T06:12:34;0.80;;;0.10;;
56345;SDS011;42246;46.096;13.644;2022-10-23T06:15:00;0.30;;;0.10;;
56345;SDS011;42246;46.096;13.644;2022-10-23T06:17:26;0.17;;;0.00;;
56345;SDS011;42246;46.096;13.644;2022-10-23T06:19:52;0.00;;;0.00;;
56345;SDS011;42246;46.096;13.644;2022-10-23T06:22:17;1.90;;;0.03;;
56345;SDS011;42246;46.096;13.644;2022-10-23T06:24:43;0.10;;;0.00;;
56345;SDS011;42246;46.096;13.644;2022-10-23T06:27:08;0.13;;;0.08;;
56345;SDS011;42246;46.096;13.644;2022-10-23T06:29:34;0.00;;;0.00;;
56345;SDS011;42246;46.096;13.644;2022-10-23T06:31:59;0.08;;;0.00;;
56345;SDS011;42246;46.096;13.644;2022-10-23T06:34:25;1.33;;;0.10;;
56345;SDS011;42246;46.096;13.644;2022-10-23T06:36:50;0.00;;;0.00;;
56345;SDS011;42246;46.096;13.644;2022-10-23T06:39:16;0.20;;;0.10;;
56345;SDS011;42246;46.096;13.644;2022-10-23T06:41:41;2.92;;;0.10;;
56345;SDS011;42246;46.096;13.644;2022-10-23T06:44:08;0.73;;;0.30;;
56345;SDS011;42246;46.096;13.644;2022-10-23T06:46:35;0.32;;;0.20;;
56345;SDS011;42246;46.096;13.644;2022-10-23T06:49:01;0.52;;;0.17;;
56345;SDS011;42246;46.096;13.644;2022-10-23T06:51:26;2.42;;;0.15;;
56345;SDS011;42246;46.096;13.644;2022-10-23T06:53:54;0.75;;;0.13;;
56345;SDS011;42246;46.096;13.644;2022-10-23T06:56:20;0.32;;;0.00;;
56345;SDS011;42246;46.096;13.644;2022-10-23T06:58:47;0.00;;;0.00;;
56345;SDS011;42246;46.096;13.644;2022-10-23T07:01:12;0.13;;;0.10;;
56345;SDS011;42246;46.096;13.644;2022-10-23T07:03:40;0.10;;;0.10;;
56345;SDS011;42246;46.096;13.644;2022-10-23T07:06:06;0.68;;;0.25;;
56345;SDS011;42246;46.096;13.644;2022-10-23T07:08:32;0.45;;;0.10;;
56345;SDS011;42246;46.096;13.644;2022-10-23T07:11:01;0.35;;;0.10;;
56345;SDS011;42246;46.096;13.644;2022-10-23T07:13:28;0.10;;;0.00;;
56345;SDS011;42246;46.096;13.644;2022-10-23T07:15:53;0.40;;;0.00;;
56345;SDS011;42246;46.096;13.644;2022-10-23T07:18:19;0.00;;;0.00;;
56345;SDS011;42246;46.096;13.644;2022-10-23T07:20:44;0.10;;;0.10;;
56345;SDS011;42246;46.096;13.644;2022-10-23T07:23:13;2.45;;;0.05;;
56345;SDS011;42246;46.096;13.644;2022-10-23T07:25:40;0.30;;;0.10;;
56345;SDS011;42246;46.096;13.644;2022-10-23T07:28:06;0.35;;;0.15;;
56345;SDS011;42246;46.096;13.644;2022-10-23T07:30:31;0.20;;;0.10;;
56345;SDS011;42246;46.096;13.644;2022-10-23T07:32:57;0.17;;;0.00;;
56345;SDS011;42246;46.096;13.644;2022-10-23T07:35:22;0.70;;;0.50;;
56345;SDS011;42246;46.096;13.644;2022-10-23T07:37:48;0.77;;;0.00;;
56345;SDS011;42246;46.096;13.644;2022-10-23T07:40:14;1.30;;;0.20;;
56345;SDS011;42246;46.096;13.644;2022-10-23T07:42:39;0.20;;;0.00;;
56345;SDS011;42246;46.096;13.644;2022-10-23T07:45:05;0.65;;;0.20;;
56345;SDS011;42246;46.096;13.644;2022-10-23T07:47:32;0.22;;;0.10;;
56345;SDS011;42246;46.096;13.644;2022-10-23T07:49:58;0.50;;;0.10;;
56345;SDS011;42246;46.096;13.644;2022-10-23T07:52:23;1.02;;;0.57;;
56345;SDS011;42246;46.096;13.644;2022-10-23T07:54:50;0.30;;;0.30;;
56345;SDS011;42246;46.096;13.644;2022-10-23T07:57:16;0.10;;;0.00;;
56345;SDS011;42246;46.096;13.644;2022-10-23T07:59:41;0.38;;;0.10;;
56345;SDS011;42246;46.096;13.644;2022-10-23T08:02:09;0.17;;;0.17;;
56345;SDS011;42246;46.096;13.644;2022-10-23T08:04:38;0.75;;;0.20;;
56345;SDS011;42246;46.096;13.644;2022-10-23T08:07:05;0.10;;;0.00;;
56345;SDS011;42246;46.096;13.644;2022-10-23T08:09:30;0.22;;;0.10;;
56345;SDS011;42246;46.096;13.644;2022-10-23T08:11:58;0.50;;;0.15;;
56345;SDS011;42246;46.096;13.644;2022-10-23T08:14:24;1.10;;;0.20;;
56345;SDS011;42246;46.096;13.644;2022-10-23T08:16:49;0.47;;;0.22;;
56345;SDS011;42246;46.096;13.644;2022-10-23T08:19:15;3.30;;;0.10;;
56345;SDS011;42246;46.096;13.644;2022-10-23T08:21:40;0.13;;;0.10;;
56345;SDS011;42246;46.096;13.644;2022-10-23T08:24:06;2.10;;;0.50;;
56345;SDS011;42246;46.096;13.644;2022-10-23T08:26:31;1.40;;;0.75;;
56345;SDS011;42246;46.096;13.644;2022-10-23T08:28:57;0.40;;;0.20;;
56345;SDS011;42246;46.096;13.644;2022-10-23T08:31:23;0.32;;;0.15;;
56345;SDS011;42246;46.096;13.644;2022-10-23T08:33:49;0.20;;;0.10;;
56345;SDS011;42246;46.096;13.644;2022-10-23T08:38:41;0.50;;;0.28;;
56345;SDS011;42246;46.096;13.644;2022-10-23T08:41:13;0.20;;;0.10;;
56345;SDS011;42246;46.096;13.644;2022-10-23T08:43:47;2.38;;;0.20;;
56345;SDS011;42246;46.096;13.644;2022-10-23T08:46:16;1.60;;;0.10;;
56345;SDS011;42246;46.096;13.644;2022-10-23T08:48:54;0.22;;;0.13;;
56345;SDS011;42246;46.096;13.644;2022-10-23T08:51:39;0.20;;;0.20;;
56345;SDS011;42246;46.096;13.644;2022-10-23T08:54:21;0.57;;;0.30;;
56345;SDS011;42246;46.096;13.644;2022-10-23T08:57:00;5.72;;;0.30;;
56345;SDS011;42246;46.096;13.644;2022-10-23T08:59:38;3.72;;;0.22;;
56345;SDS011;42246;46.096;13.644;2022-10-23T09:02:27;1.40;;;0.10;;
56345;SDS011;42246;46.096;13.644;2022-10-23T09:04:56;0.40;;;0.22;;
56345;SDS011;42246;46.096;13.644;2022-10-23T09:10:33;0.20;;;0.10;;
56345;SDS011;42246;46.096;13.644;2022-10-23T09:18:41;0.40;;;0.20;;
56345;SDS011;42246;46.096;13.644;2022-10-23T09:21:08;0.40;;;0.20;;
56345;SDS011;42246;46.096;13.644;2022-10-23T09:23:34;0.10;;;0.10;;
56345;SDS011;42246;46.096;13.644;2022-10-23T09:25:59;0.40;;;0.20;;
56345;SDS011;42246;46.096;13.644;2022-10-23T09:28:26;0.50;;;0.10;;
56345;SDS011;42246;46.096;13.644;2022-10-23T09:31:05;0.00;;;0.00;;
56345;SDS011;42246;46.096;13.644;2022-10-23T09:33:32;0.10;;;0.05;;
56345;SDS011;42246;46.096;13.644;2022-10-23T09:38:35;1.23;;;0.10;;
56345;SDS011;42246;46.096;13.644;2022-10-23T09:41:15;0.22;;;0.17;;
56345;SDS011;42246;46.096;13.644;2022-10-23T09:43:44;0.20;;;0.10;;
56345;SDS011;42246;46.096;13.644;2022-10-23T09:46:09;2.17;;;0.17;;
56345;SDS011;42246;46.096;13.644;2022-10-23T09:48:36;0.20;;;0.20;;
56345;SDS011;42246;46.096;13.644;2022-10-23T09:51:11;0.10;;;0.00;;
56345;SDS011;42246;46.096;13.644;2022-10-23T09:53:47;1.10;;;0.20;;
56345;SDS011;42246;46.096;13.644;2022-10-23T09:56:25;0.50;;;0.40;;
56345;SDS011;42246;46.096;13.644;2022-10-23T09:58:55;1.83;;;0.68;;
56345;SDS011;42246;46.096;13.644;2022-10-23T10:01:47;1.52;;;0.98;;
56345;SDS011;42246;46.096;13.644;2022-10-23T10:04:14;0.57;;;0.38;;
56345;SDS011;42246;46.096;13.644;2022-10-23T10:06:40;0.30;;;0.10;;
56345;SDS011;42246;46.096;13.644;2022-10-23T10:09:07;0.68;;;0.20;;
56345;SDS011;42246;46.096;13.644;2022-10-23T10:15:10;0.70;;;0.30;;
56345;SDS011;42246;46.096;13.644;2022-10-23T10:17:19;0.63;;;0.20;;
56345;SDS011;42246;46.096;13.644;2022-10-23T10:25:02;0.50;;;0.10;;
56345;SDS011;42246;46.096;13.644;2022-10-23T10:28:01;0.28;;;0.10;;
56345;SDS011;42246;46.096;13.644;2022-10-23T10:30:46;0.20;;;0.20;;
56345;SDS011;42246;46.096;13.644;2022-10-23T10:33:17;0.10;;;0.08;;
56345;SDS011;42246;46.096;13.644;2022-10-23T10:38:53;3.03;;;0.20;;
56345;SDS011;42246;46.096;13.644;2022-10-23T10:47:12;2.00;;;0.70;;
56345;SDS011;42246;46.096;13.644;2022-10-23T10:50:25;1.33;;;0.40;;
56345;SDS011;42246;46.096;13.644;2022-10-23T10:53:08;0.20;;;0.03;;
56345;SDS011;42246;46.096;13.644;2022-10-23T10:55:41;0.25;;;0.00;;
56345;SDS011;42246;46.096;13.644;2022-10-23T11:01:15;0.70;;;0.57;;
56345;SDS011;42246;46.096;13.644;2022-10-23T11:03:44;1.17;;;0.43;;
56345;SDS011;42246;46.096;13.644;2022-10-23T11:06:17;3.60;;;0.65;;
56345;SDS011;42246;46.096;13.644;2022-10-23T11:08:45;0.20;;;0.10;;
56345;SDS011;42246;46.096;13.644;2022-10-23T11:11:12;0.10;;;0.10;;
56345;SDS011;42246;46.096;13.644;2022-10-23T11:13:42;0.13;;;0.10;;
56345;SDS011;42246;46.096;13.644;2022-10-23T11:16:10;0.15;;;0.10;;
56345;SDS011;42246;46.096;13.644;2022-10-23T11:18:39;0.13;;;0.10;;
56345;SDS011;42246;46.096;13.644;2022-10-23T11:26:16;0.22;;;0.10;;
56345;SDS011;42246;46.096;13.644;2022-10-23T11:35:09;0.25;;;0.00;;
56345;SDS011;42246;46.096;13.644;2022-10-23T11:37:38;0.20;;;0.10;;
56345;SDS011;42246;46.096;13.644;2022-10-23T11:42:43;0.40;;;0.10;;
56345;SDS011;42246;46.096;13.644;2022-10-23T11:48:04;0.20;;;0.10;;
56345;SDS011;42246;46.096;13.644;2022-10-23T11:50:32;0.70;;;0.30;;
56345;SDS011;42246;46.096;13.644;2022-10-23T11:53:05;0.68;;;0.30;;
56345;SDS011;42246;46.096;13.644;2022-10-23T11:56:19;0.32;;;0.10;;
56345;SDS011;42246;46.096;13.644;2022-10-23T11:58:55;0.40;;;0.25;;
56345;SDS011;42246;46.096;13.644;2022-10-23T12:04:04;1.05;;;0.28;;
56345;SDS011;42246;46.096;13.644;2022-10-23T12:07:41;2.95;;;0.20;;
56345;SDS011;42246;46.096;13.644;2022-10-23T12:09:50;0.70;;;0.30;;
56345;SDS011;42246;46.096;13.644;2022-10-23T12:12:33;0.77;;;0.60;;
56345;SDS011;42246;46.096;13.644;2022-10-23T12:17:39;0.30;;;0.20;;
56345;SDS011;42246;46.096;13.644;2022-10-23T12:22:49;1.85;;;0.70;;
56345;SDS011;42246;46.096;13.644;2022-10-23T12:39:01;2.60;;;0.50;;
56345;SDS011;42246;46.096;13.644;2022-10-23T12:41:27;2.90;;;0.90;;
56345;SDS011;42246;46.096;13.644;2022-10-23T12:43:55;14.23;;;5.40;;
56345;SDS011;42246;46.096;13.644;2022-10-23T12:49:13;25.38;;;9.07;;
56345;SDS011;42246;46.096;13.644;2022-10-23T12:51:42;24.20;;;8.32;;
56345;SDS011;42246;46.096;13.644;2022-10-23T12:54:13;7.70;;;2.88;;
56345;SDS011;42246;46.096;13.644;2022-10-23T12:56:43;3.50;;;1.42;;
56345;SDS011;42246;46.096;13.644;2022-10-23T12:59:42;2.15;;;0.77;;
56345;SDS011;42246;46.096;13.644;2022-10-23T13:02:01;5.75;;;1.98;;
56345;SDS011;42246;46.096;13.644;2022-10-23T13:04:41;27.75;;;6.68;;
56345;SDS011;42246;46.096;13.644;2022-10-23T13:07:07;6.43;;;2.17;;
56345;SDS011;42246;46.096;13.644;2022-10-23T13:09:33;4.60;;;0.73;;
56345;SDS011;42246;46.096;13.644;2022-10-23T13:12:04;1.92;;;0.65;;
56345;SDS011;42246;46.096;13.644;2022-10-23T13:14:32;2.45;;;0.90;;
56345;SDS011;42246;46.096;13.644;2022-10-23T13:17:00;1.77;;;1.23;;
56345;SDS011;42246;46.096;13.644;2022-10-23T13:19:29;1.80;;;0.85;;
56345;SDS011;42246;46.096;13.644;2022-10-23T13:21:55;3.03;;;1.00;;
56345;SDS011;42246;46.096;13.644;2022-10-23T13:24:21;0.40;;;0.22;;
56345;SDS011;42246;46.096;13.644;2022-10-23T13:26:49;2.15;;;0.70;;
56345;SDS011;42246;46.096;13.644;2022-10-23T13:29:36;5.15;;;2.15;;
56345;SDS011;42246;46.096;13.644;2022-10-23T13:32:10;6.32;;;3.10;;
56345;SDS011;42246;46.096;13.644;2022-10-23T13:34:36;3.10;;;1.20;;
56345;SDS011;42246;46.096;13.644;2022-10-23T13:37:18;5.45;;;2.45;;
56345;SDS011;42246;46.096;13.644;2022-10-23T13:39:57;9.70;;;2.92;;
56345;SDS011;42246;46.096;13.644;2022-10-23T13:42:28;4.65;;;2.47;;
56345;SDS011;42246;46.096;13.644;2022-10-23T13:44:54;6.28;;;3.63;;
56345;SDS011;42246;46.096;13.644;2022-10-23T13:47:19;2.42;;;0.85;;
56345;SDS011;42246;46.096;13.644;2022-10-23T13:49:45;3.92;;;1.20;;
56345;SDS011;42246;46.096;13.644;2022-10-23T13:52:12;2.10;;;0.88;;
56345;SDS011;42246;46.096;13.644;2022-10-23T13:54:38;6.72;;;2.85;;
56345;SDS011;42246;46.096;13.644;2022-10-23T13:57:05;2.38;;;1.52;;
56345;SDS011;42246;46.096;13.644;2022-10-23T13:59:35;1.45;;;0.82;;
56345;SDS011;42246;46.096;13.644;2022-10-23T14:02:01;1.50;;;0.75;;
56345;SDS011;42246;46.096;13.644;2022-10-23T14:04:28;1.30;;;0.75;;
56345;SDS011;42246;46.096;13.644;2022-10-23T14:06:54;4.00;;;2.22;;
56345;SDS011;42246;46.096;13.644;2022-10-23T14:09:22;1.67;;;0.98;;
56345;SDS011;42246;46.096;13.644;2022-10-23T14:11:48;3.63;;;1.75;;
56345;SDS011;42246;46.096;13.644;2022-10-23T14:14:13;7.10;;;2.70;;
56345;SDS011;42246;46.096;13.644;2022-10-23T14:16:39;1.60;;;0.75;;
56345;SDS011;42246;46.096;13.644;2022-10-23T14:19:04;10.93;;;6.55;;
56345;SDS011;42246;46.096;13.644;2022-10-23T14:21:30;7.20;;;4.03;;
56345;SDS011;42246;46.096;13.644;2022-10-23T14:23:55;1.80;;;0.85;;
56345;SDS011;42246;46.096;13.644;2022-10-23T14:26:23;1.20;;;0.40;;
56345;SDS011;42246;46.096;13.644;2022-10-23T14:28:53;2.08;;;0.55;;
56345;SDS011;42246;46.096;13.644;2022-10-23T14:31:19;2.25;;;0.38;;
56345;SDS011;42246;46.096;13.644;2022-10-23T14:33:45;0.30;;;0.20;;
56345;SDS011;42246;46.096;13.644;2022-10-23T14:36:15;0.68;;;0.40;;
56345;SDS011;42246;46.096;13.644;2022-10-23T14:38:41;0.52;;;0.30;;
56345;SDS011;42246;46.096;13.644;2022-10-23T14:41:10;1.63;;;0.80;;
56345;SDS011;42246;46.096;13.644;2022-10-23T14:43:37;1.00;;;0.70;;
56345;SDS011;42246;46.096;13.644;2022-10-23T14:46:12;0.90;;;0.70;;
56345;SDS011;42246;46.096;13.644;2022-10-23T14:48:39;0.60;;;0.20;;
56345;SDS011;42246;46.096;13.644;2022-10-23T14:51:06;1.17;;;0.20;;
56345;SDS011;42246;46.096;13.644;2022-10-23T14:53:38;0.35;;;0.20;;
56345;SDS011;42246;46.096;13.644;2022-10-23T14:56:03;2.38;;;0.30;;
56345;SDS011;42246;46.096;13.644;2022-10-23T14:58:29;2.53;;;0.30;;
56345;SDS011;42246;46.096;13.644;2022-10-23T15:00:58;0.30;;;0.15;;
56345;SDS011;42246;46.096;13.644;2022-10-23T15:03:24;0.88;;;0.40;;
56345;SDS011;42246;46.096;13.644;2022-10-23T15:05:51;0.45;;;0.30;;
56345;SDS011;42246;46.096;13.644;2022-10-23T15:08:16;0.68;;;0.30;;
56345;SDS011;42246;46.096;13.644;2022-10-23T15:10:41;2.40;;;0.38;;
56345;SDS011;42246;46.096;13.644;2022-10-23T15:13:07;0.90;;;0.55;;
56345;SDS011;42246;46.096;13.644;2022-10-23T15:15:32;0.77;;;0.30;;
56345;SDS011;42246;46.096;13.644;2022-10-23T15:17:58;0.93;;;0.55;;
56345;SDS011;42246;46.096;13.644;2022-10-23T15:20:23;1.10;;;0.63;;
56345;SDS011;42246;46.096;13.644;2022-10-23T15:22:49;1.05;;;0.40;;
56345;SDS011;42246;46.096;13.644;2022-10-23T15:25:14;1.20;;;0.30;;
56345;SDS011;42246;46.096;13.644;2022-10-23T15:27:40;1.02;;;0.22;;
56345;SDS011;42246;46.096;13.644;2022-10-23T15:30:06;0.80;;;0.70;;
56345;SDS011;42246;46.096;13.644;2022-10-23T15:32:32;1.45;;;1.17;;
56345;SDS011;42246;46.096;13.644;2022-10-23T15:34:57;1.30;;;0.60;;
56345;SDS011;42246;46.096;13.644;2022-10-23T15:37:24;1.02;;;0.52;;
56345;SDS011;42246;46.096;13.644;2022-10-23T15:39:50;0.85;;;0.22;;
56345;SDS011;42246;46.096;13.644;2022-10-23T15:42:15;1.25;;;0.50;;
56345;SDS011;42246;46.096;13.644;2022-10-23T15:44:43;0.68;;;0.60;;
56345;SDS011;42246;46.096;13.644;2022-10-23T15:47:08;0.88;;;0.60;;
56345;SDS011;42246;46.096;13.644;2022-10-23T15:49:34;0.75;;;0.55;;
56345;SDS011;42246;46.096;13.644;2022-10-23T15:52:00;1.23;;;0.43;;
56345;SDS011;42246;46.096;13.644;2022-10-23T15:54:28;2.00;;;0.65;;
56345;SDS011;42246;46.096;13.644;2022-10-23T15:56:54;0.63;;;0.40;;
56345;SDS011;42246;46.096;13.644;2022-10-23T15:59:20;0.80;;;0.52;;
56345;SDS011;42246;46.096;13.644;2022-10-23T16:01:47;0.55;;;0.45;;
56345;SDS011;42246;46.096;13.644;2022-10-23T16:04:12;2.38;;;0.30;;
56345;SDS011;42246;46.096;13.644;2022-10-23T16:06:38;1.42;;;0.60;;
56345;SDS011;42246;46.096;13.644;2022-10-23T16:09:04;0.93;;;0.30;;
56345;SDS011;42246;46.096;13.644;2022-10-23T16:11:30;1.00;;;0.60;;
56345;SDS011;42246;46.096;13.644;2022-10-23T16:13:59;0.73;;;0.68;;
56345;SDS011;42246;46.096;13.644;2022-10-23T16:16:27;1.33;;;0.82;;
56345;SDS011;42246;46.096;13.644;2022-10-23T16:18:53;1.52;;;0.73;;
56345;SDS011;42246;46.096;13.644;2022-10-23T16:21:19;2.22;;;0.43;;
56345;SDS011;42246;46.096;13.644;2022-10-23T16:23:46;0.60;;;0.40;;